sensor_id;sensor_type;location;lat;lon;timestamp;P1;durP1;ratioP1;P2;durP2;ratioP2
2674;SDS011;1347;42.122;24.746;2022-10-16T00:00:36;9.63;;;8.73;;
2674;SDS011;1347;42.122;24.746;2022-10-16T00:03:03;10.53;;;9.10;;
2674;SDS011;1347;42.122;24.746;2022-10-16T00:05:30;10.47;;;7.97;;
2674;SDS011;1347;42.122;24.746;2022-10-16T00:07:59;15.13;;;9.70;;
2674;SDS011;1347;42.122;24.746;2022-10-16T00:10:27;11.13;;;8.43;;
2674;SDS011;1347;42.122;24.746;2022-10-16T00:12:55;9.07;;;8.17;;
2674;SDS011;1347;42.122;24.746;2022-10-16T00:15:22;11.87;;;9.93;;
2674;SDS011;1347;42.122;24.746;2022-10-16T00:17:49;10.03;;;9.03;;
2674;SDS011;1347;42.122;24.746;2022-10-16T00:20:16;9.83;;;8.93;;
2674;SDS011;1347;42.122;24.746;2022-10-16T00:22:43;11.93;;;9.40;;
2674;SDS011;1347;42.122;24.746;2022-10-16T00:25:11;9.77;;;8.77;;
2674;SDS011;1347;42.122;24.746;2022-10-16T00:27:38;12.27;;;9.23;;
2674;SDS011;1347;42.122;24.746;2022-10-16T00:30:05;10.37;;;8.77;;
2674;SDS011;1347;42.122;24.746;2022-10-16T00:32:34;11.30;;;9.07;;
2674;SDS011;1347;42.122;24.746;2022-10-16T00:35:01;11.50;;;8.90;;
2674;SDS011;1347;42.122;24.746;2022-10-16T00:37:29;11.30;;;10.17;;
2674;SDS011;1347;42.122;24.746;2022-10-16T00:39:55;12.47;;;9.50;;
2674;SDS011;1347;42.122;24.746;2022-10-16T00:42:24;11.13;;;9.90;;
2674;SDS011;1347;42.122;24.746;2022-10-16T00:44:51;19.03;;;10.00;;
2674;SDS011;1347;42.122;24.746;2022-10-16T00:47:21;11.70;;;10.23;;
2674;SDS011;1347;42.122;24.746;2022-10-16T00:49:53;12.33;;;11.20;;
2674;SDS011;1347;42.122;24.746;2022-10-16T00:52:26;14.20;;;9.23;;
2674;SDS011;1347;42.122;24.746;2022-10-16T00:54:53;10.30;;;9.20;;
2674;SDS011;1347;42.122;24.746;2022-10-16T00:57:23;10.63;;;9.63;;
2674;SDS011;1347;42.122;24.746;2022-10-16T00:59:51;10.97;;;9.87;;
2674;SDS011;1347;42.122;24.746;2022-10-16T01:02:19;11.50;;;9.40;;
2674;SDS011;1347;42.122;24.746;2022-10-16T01:04:47;10.80;;;9.83;;
2674;SDS011;1347;42.122;24.746;2022-10-16T01:07:20;11.30;;;9.00;;
2674;SDS011;1347;42.122;24.746;2022-10-16T01:10:06;9.70;;;8.80;;
2674;SDS011;1347;42.122;24.746;2022-10-16T01:12:42;10.33;;;9.20;;
2674;SDS011;1347;42.122;24.746;2022-10-16T01:15:13;11.63;;;10.20;;
2674;SDS011;1347;42.122;24.746;2022-10-16T01:17:45;14.47;;;10.90;;
2674;SDS011;1347;42.122;24.746;2022-10-16T01:20:18;12.80;;;10.83;;
2674;SDS011;1347;42.122;24.746;2022-10-16T01:22:59;12.63;;;11.40;;
2674;SDS011;1347;42.122;24.746;2022-10-16T01:25:36;13.73;;;11.73;;
2674;SDS011;1347;42.122;24.746;2022-10-16T01:28:16;14.37;;;11.97;;
2674;SDS011;1347;42.122;24.746;2022-10-16T01:30:47;13.30;;;12.00;;
2674;SDS011;1347;42.122;24.746;2022-10-16T01:33:18;12.90;;;11.50;;
2674;SDS011;1347;42.122;24.746;2022-10-16T01:35:50;15.83;;;11.43;;
2674;SDS011;1347;42.122;24.746;2022-10-16T01:38:20;15.60;;;11.87;;
2674;SDS011;1347;42.122;24.746;2022-10-16T01:40:52;13.40;;;12.10;;
2674;SDS011;1347;42.122;24.746;2022-10-16T01:43:25;16.50;;;12.20;;
2674;SDS011;1347;42.122;24.746;2022-10-16T01:45:57;13.27;;;11.93;;
2674;SDS011;1347;42.122;24.746;2022-10-16T01:48:26;14.80;;;11.70;;
2674;SDS011;1347;42.122;24.746;2022-10-16T01:51:03;13.30;;;11.87;;
2674;SDS011;1347;42.122;24.746;2022-10-16T01:53:33;12.30;;;11.10;;
2674;SDS011;1347;42.122;24.746;2022-10-16T01:56:01;11.63;;;10.43;;
2674;SDS011;1347;42.122;24.746;2022-10-16T01:58:33;16.10;;;13.37;;
2674;SDS011;1347;42.122;24.746;2022-10-16T02:01:05;15.33;;;11.60;;
2674;SDS011;1347;42.122;24.746;2022-10-16T02:03:36;13.07;;;11.50;;
2674;SDS011;1347;42.122;24.746;2022-10-16T02:06:07;16.43;;;13.30;;
2674;SDS011;1347;42.122;24.746;2022-10-16T02:08:34;13.87;;;12.40;;
2674;SDS011;1347;42.122;24.746;2022-10-16T02:11:02;15.33;;;12.13;;
2674;SDS011;1347;42.122;24.746;2022-10-16T02:13:30;14.17;;;12.73;;
2674;SDS011;1347;42.122;24.746;2022-10-16T02:16:03;14.53;;;12.03;;
2674;SDS011;1347;42.122;24.746;2022-10-16T02:18:30;16.47;;;13.07;;
2674;SDS011;1347;42.122;24.746;2022-10-16T02:20:59;15.10;;;13.27;;
2674;SDS011;1347;42.122;24.746;2022-10-16T02:23:32;14.00;;;12.50;;
2674;SDS011;1347;42.122;24.746;2022-10-16T02:26:04;16.70;;;13.40;;
2674;SDS011;1347;42.122;24.746;2022-10-16T02:28:37;14.67;;;11.20;;
2674;SDS011;1347;42.122;24.746;2022-10-16T02:31:08;20.27;;;13.70;;
2674;SDS011;1347;42.122;24.746;2022-10-16T02:33:38;14.33;;;12.17;;
2674;SDS011;1347;42.122;24.746;2022-10-16T02:36:08;13.43;;;12.10;;
2674;SDS011;1347;42.122;24.746;2022-10-16T02:38:36;14.40;;;12.90;;
2674;SDS011;1347;42.122;24.746;2022-10-16T02:41:04;21.33;;;12.83;;
2674;SDS011;1347;42.122;24.746;2022-10-16T02:43:31;14.70;;;12.17;;
2674;SDS011;1347;42.122;24.746;2022-10-16T02:46:00;16.20;;;13.97;;
2674;SDS011;1347;42.122;24.746;2022-10-16T02:48:27;18.00;;;12.87;;
2674;SDS011;1347;42.122;24.746;2022-10-16T02:50:54;15.43;;;12.33;;
2674;SDS011;1347;42.122;24.746;2022-10-16T02:53:22;20.70;;;13.73;;
2674;SDS011;1347;42.122;24.746;2022-10-16T02:55:49;13.97;;;12.37;;
2674;SDS011;1347;42.122;24.746;2022-10-16T02:58:16;17.53;;;12.67;;
2674;SDS011;1347;42.122;24.746;2022-10-16T03:00:42;12.53;;;11.33;;
2674;SDS011;1347;42.122;24.746;2022-10-16T03:03:11;13.97;;;12.47;;
2674;SDS011;1347;42.122;24.746;2022-10-16T03:05:38;17.37;;;12.47;;
2674;SDS011;1347;42.122;24.746;2022-10-16T03:08:04;15.80;;;13.20;;
2674;SDS011;1347;42.122;24.746;2022-10-16T03:10:31;15.97;;;13.50;;
2674;SDS011;1347;42.122;24.746;2022-10-16T03:12:58;17.57;;;14.40;;
2674;SDS011;1347;42.122;24.746;2022-10-16T03:15:25;14.23;;;12.27;;
2674;SDS011;1347;42.122;24.746;2022-10-16T03:17:53;15.80;;;13.40;;
2674;SDS011;1347;42.122;24.746;2022-10-16T03:20:21;18.70;;;14.63;;
2674;SDS011;1347;42.122;24.746;2022-10-16T03:22:48;15.90;;;14.30;;
2674;SDS011;1347;42.122;24.746;2022-10-16T03:25:15;17.23;;;15.07;;
2674;SDS011;1347;42.122;24.746;2022-10-16T03:27:42;17.53;;;14.30;;
2674;SDS011;1347;42.122;24.746;2022-10-16T03:30:09;16.93;;;13.40;;
2674;SDS011;1347;42.122;24.746;2022-10-16T03:32:36;22.60;;;14.33;;
2674;SDS011;1347;42.122;24.746;2022-10-16T03:35:03;16.13;;;14.43;;
2674;SDS011;1347;42.122;24.746;2022-10-16T03:37:32;15.63;;;13.87;;
2674;SDS011;1347;42.122;24.746;2022-10-16T03:39:59;17.07;;;14.67;;
2674;SDS011;1347;42.122;24.746;2022-10-16T03:42:26;16.50;;;14.70;;
2674;SDS011;1347;42.122;24.746;2022-10-16T03:44:53;21.57;;;15.57;;
2674;SDS011;1347;42.122;24.746;2022-10-16T03:47:20;19.97;;;15.53;;
2674;SDS011;1347;42.122;24.746;2022-10-16T03:49:48;19.17;;;13.90;;
2674;SDS011;1347;42.122;24.746;2022-10-16T03:52:15;18.20;;;14.30;;
2674;SDS011;1347;42.122;24.746;2022-10-16T03:54:43;16.53;;;14.53;;
2674;SDS011;1347;42.122;24.746;2022-10-16T03:57:10;17.10;;;15.37;;
2674;SDS011;1347;42.122;24.746;2022-10-16T03:59:37;19.30;;;15.73;;
2674;SDS011;1347;42.122;24.746;2022-10-16T04:02:04;18.13;;;15.30;;
2674;SDS011;1347;42.122;24.746;2022-10-16T04:04:31;22.97;;;16.07;;
2674;SDS011;1347;42.122;24.746;2022-10-16T04:06:58;18.33;;;16.20;;
2674;SDS011;1347;42.122;24.746;2022-10-16T04:09:25;25.00;;;15.00;;
2674;SDS011;1347;42.122;24.746;2022-10-16T04:11:53;23.00;;;17.60;;
2674;SDS011;1347;42.122;24.746;2022-10-16T04:14:20;46.03;;;18.67;;
2674;SDS011;1347;42.122;24.746;2022-10-16T04:16:47;22.03;;;17.00;;
2674;SDS011;1347;42.122;24.746;2022-10-16T04:19:14;34.53;;;21.17;;
2674;SDS011;1347;42.122;24.746;2022-10-16T04:21:41;22.70;;;18.50;;
2674;SDS011;1347;42.122;24.746;2022-10-16T04:24:08;21.57;;;17.80;;
2674;SDS011;1347;42.122;24.746;2022-10-16T04:26:35;22.43;;;17.77;;
2674;SDS011;1347;42.122;24.746;2022-10-16T04:29:04;19.97;;;15.70;;
2674;SDS011;1347;42.122;24.746;2022-10-16T04:31:32;23.73;;;17.70;;
2674;SDS011;1347;42.122;24.746;2022-10-16T04:33:58;27.37;;;17.70;;
2674;SDS011;1347;42.122;24.746;2022-10-16T04:36:25;25.47;;;17.30;;
2674;SDS011;1347;42.122;24.746;2022-10-16T04:38:52;23.37;;;17.60;;
2674;SDS011;1347;42.122;24.746;2022-10-16T04:41:20;21.67;;;17.07;;
2674;SDS011;1347;42.122;24.746;2022-10-16T04:43:46;20.30;;;16.03;;
2674;SDS011;1347;42.122;24.746;2022-10-16T04:46:15;17.67;;;14.80;;
2674;SDS011;1347;42.122;24.746;2022-10-16T04:48:42;20.37;;;16.47;;
2674;SDS011;1347;42.122;24.746;2022-10-16T04:51:08;19.70;;;15.43;;
2674;SDS011;1347;42.122;24.746;2022-10-16T04:53:35;19.30;;;15.80;;
2674;SDS011;1347;42.122;24.746;2022-10-16T04:56:02;19.70;;;14.20;;
2674;SDS011;1347;42.122;24.746;2022-10-16T04:58:29;19.73;;;15.80;;
2674;SDS011;1347;42.122;24.746;2022-10-16T05:00:56;16.63;;;13.97;;
2674;SDS011;1347;42.122;24.746;2022-10-16T05:03:25;22.63;;;15.93;;
2674;SDS011;1347;42.122;24.746;2022-10-16T05:05:51;19.43;;;14.43;;
2674;SDS011;1347;42.122;24.746;2022-10-16T05:08:18;20.77;;;15.53;;
2674;SDS011;1347;42.122;24.746;2022-10-16T05:10:45;21.03;;;14.23;;
2674;SDS011;1347;42.122;24.746;2022-10-16T05:13:12;17.73;;;13.93;;
2674;SDS011;1347;42.122;24.746;2022-10-16T05:15:39;18.03;;;15.07;;
2674;SDS011;1347;42.122;24.746;2022-10-16T05:18:06;22.97;;;15.70;;
2674;SDS011;1347;42.122;24.746;2022-10-16T05:20:34;17.83;;;15.93;;
2674;SDS011;1347;42.122;24.746;2022-10-16T05:23:01;21.70;;;16.40;;
2674;SDS011;1347;42.122;24.746;2022-10-16T05:25:28;21.30;;;16.70;;
2674;SDS011;1347;42.122;24.746;2022-10-16T05:27:55;18.00;;;15.93;;
2674;SDS011;1347;42.122;24.746;2022-10-16T05:30:22;19.07;;;17.07;;
2674;SDS011;1347;42.122;24.746;2022-10-16T05:32:49;22.93;;;17.70;;
2674;SDS011;1347;42.122;24.746;2022-10-16T05:35:17;21.03;;;16.37;;
2674;SDS011;1347;42.122;24.746;2022-10-16T05:37:46;18.33;;;15.00;;
2674;SDS011;1347;42.122;24.746;2022-10-16T05:40:14;21.20;;;15.80;;
2674;SDS011;1347;42.122;24.746;2022-10-16T05:42:41;16.13;;;14.43;;
2674;SDS011;1347;42.122;24.746;2022-10-16T05:45:09;18.10;;;15.70;;
2674;SDS011;1347;42.122;24.746;2022-10-16T05:47:37;16.03;;;14.43;;
2674;SDS011;1347;42.122;24.746;2022-10-16T05:50:04;16.23;;;14.47;;
2674;SDS011;1347;42.122;24.746;2022-10-16T05:52:31;17.40;;;15.00;;
2674;SDS011;1347;42.122;24.746;2022-10-16T05:54:59;16.13;;;14.30;;
2674;SDS011;1347;42.122;24.746;2022-10-16T05:57:26;18.80;;;14.60;;
2674;SDS011;1347;42.122;24.746;2022-10-16T05:59:53;14.50;;;11.90;;
2674;SDS011;1347;42.122;24.746;2022-10-16T06:02:20;19.00;;;12.97;;
2674;SDS011;1347;42.122;24.746;2022-10-16T06:04:47;15.30;;;13.10;;
2674;SDS011;1347;42.122;24.746;2022-10-16T06:07:14;14.57;;;13.07;;
2674;SDS011;1347;42.122;24.746;2022-10-16T06:09:41;14.47;;;12.50;;
2674;SDS011;1347;42.122;24.746;2022-10-16T06:12:10;15.97;;;12.20;;
2674;SDS011;1347;42.122;24.746;2022-10-16T06:14:37;14.10;;;11.77;;
2674;SDS011;1347;42.122;24.746;2022-10-16T06:17:03;13.90;;;10.80;;
2674;SDS011;1347;42.122;24.746;2022-10-16T06:19:30;14.50;;;10.83;;
2674;SDS011;1347;42.122;24.746;2022-10-16T06:21:57;14.77;;;11.80;;
2674;SDS011;1347;42.122;24.746;2022-10-16T06:24:24;13.50;;;12.10;;
2674;SDS011;1347;42.122;24.746;2022-10-16T06:26:51;13.10;;;11.73;;
2674;SDS011;1347;42.122;24.746;2022-10-16T06:29:20;17.20;;;11.83;;
2674;SDS011;1347;42.122;24.746;2022-10-16T06:31:47;14.50;;;11.00;;
2674;SDS011;1347;42.122;24.746;2022-10-16T06:34:13;15.37;;;12.13;;
2674;SDS011;1347;42.122;24.746;2022-10-16T06:36:40;12.10;;;10.90;;
2674;SDS011;1347;42.122;24.746;2022-10-16T06:39:08;15.33;;;10.70;;
2674;SDS011;1347;42.122;24.746;2022-10-16T06:41:35;12.00;;;9.70;;
2674;SDS011;1347;42.122;24.746;2022-10-16T06:44:04;14.60;;;10.23;;
2674;SDS011;1347;42.122;24.746;2022-10-16T06:46:34;9.43;;;8.53;;
2674;SDS011;1347;42.122;24.746;2022-10-16T06:49:01;10.37;;;8.53;;
2674;SDS011;1347;42.122;24.746;2022-10-16T06:51:27;10.53;;;9.63;;
2674;SDS011;1347;42.122;24.746;2022-10-16T06:53:56;10.00;;;9.10;;
2674;SDS011;1347;42.122;24.746;2022-10-16T06:56:23;10.93;;;9.87;;
2674;SDS011;1347;42.122;24.746;2022-10-16T06:59:01;11.83;;;10.63;;
2674;SDS011;1347;42.122;24.746;2022-10-16T07:01:29;12.90;;;11.70;;
2674;SDS011;1347;42.122;24.746;2022-10-16T07:03:57;11.83;;;9.43;;
2674;SDS011;1347;42.122;24.746;2022-10-16T07:06:25;10.43;;;9.43;;
2674;SDS011;1347;42.122;24.746;2022-10-16T07:08:52;10.00;;;9.10;;
2674;SDS011;1347;42.122;24.746;2022-10-16T07:11:21;11.13;;;9.80;;
2674;SDS011;1347;42.122;24.746;2022-10-16T07:13:49;10.73;;;8.43;;
2674;SDS011;1347;42.122;24.746;2022-10-16T07:16:18;10.57;;;9.60;;
2674;SDS011;1347;42.122;24.746;2022-10-16T07:18:46;9.53;;;8.83;;
2674;SDS011;1347;42.122;24.746;2022-10-16T07:21:19;9.33;;;8.63;;
2674;SDS011;1347;42.122;24.746;2022-10-16T07:23:49;8.97;;;8.27;;
2674;SDS011;1347;42.122;24.746;2022-10-16T07:26:19;9.10;;;8.30;;
2674;SDS011;1347;42.122;24.746;2022-10-16T07:28:46;9.73;;;8.90;;
2674;SDS011;1347;42.122;24.746;2022-10-16T07:31:22;9.30;;;8.50;;
2674;SDS011;1347;42.122;24.746;2022-10-16T07:33:51;10.97;;;9.00;;
2674;SDS011;1347;42.122;24.746;2022-10-16T07:36:29;10.63;;;9.27;;
2674;SDS011;1347;42.122;24.746;2022-10-16T07:38:56;9.00;;;8.30;;
2674;SDS011;1347;42.122;24.746;2022-10-16T07:41:23;9.20;;;8.30;;
2674;SDS011;1347;42.122;24.746;2022-10-16T07:43:50;9.43;;;8.50;;
2674;SDS011;1347;42.122;24.746;2022-10-16T07:46:19;10.47;;;8.30;;
2674;SDS011;1347;42.122;24.746;2022-10-16T07:48:47;9.40;;;8.50;;
2674;SDS011;1347;42.122;24.746;2022-10-16T07:51:15;8.87;;;8.07;;
2674;SDS011;1347;42.122;24.746;2022-10-16T07:53:44;10.10;;;9.20;;
2674;SDS011;1347;42.122;24.746;2022-10-16T07:56:11;8.33;;;7.60;;
2674;SDS011;1347;42.122;24.746;2022-10-16T07:58:39;7.57;;;6.97;;
2674;SDS011;1347;42.122;24.746;2022-10-16T08:01:07;10.87;;;8.30;;
2674;SDS011;1347;42.122;24.746;2022-10-16T08:03:36;9.07;;;8.27;;
2674;SDS011;1347;42.122;24.746;2022-10-16T08:06:03;9.87;;;8.87;;
2674;SDS011;1347;42.122;24.746;2022-10-16T08:08:31;8.67;;;7.83;;
2674;SDS011;1347;42.122;24.746;2022-10-16T08:10:59;8.43;;;7.73;;
2674;SDS011;1347;42.122;24.746;2022-10-16T08:13:28;8.47;;;7.77;;
2674;SDS011;1347;42.122;24.746;2022-10-16T08:15:55;9.27;;;8.20;;
2674;SDS011;1347;42.122;24.746;2022-10-16T08:18:22;8.90;;;8.10;;
2674;SDS011;1347;42.122;24.746;2022-10-16T08:20:54;8.53;;;7.80;;
2674;SDS011;1347;42.122;24.746;2022-10-16T08:23:22;7.97;;;7.37;;
2674;SDS011;1347;42.122;24.746;2022-10-16T08:25:50;9.00;;;8.30;;
2674;SDS011;1347;42.122;24.746;2022-10-16T08:28:19;8.73;;;7.93;;
2674;SDS011;1347;42.122;24.746;2022-10-16T08:30:47;9.40;;;8.30;;
2674;SDS011;1347;42.122;24.746;2022-10-16T08:33:14;8.07;;;7.37;;
2674;SDS011;1347;42.122;24.746;2022-10-16T08:35:41;7.37;;;6.77;;
2674;SDS011;1347;42.122;24.746;2022-10-16T08:38:07;7.77;;;7.07;;
2674;SDS011;1347;42.122;24.746;2022-10-16T08:40:36;9.37;;;8.47;;
2674;SDS011;1347;42.122;24.746;2022-10-16T08:43:11;8.70;;;7.93;;
2674;SDS011;1347;42.122;24.746;2022-10-16T08:46:11;7.90;;;7.40;;
2674;SDS011;1347;42.122;24.746;2022-10-16T08:49:01;8.50;;;7.70;;
2674;SDS011;1347;42.122;24.746;2022-10-16T08:51:30;7.87;;;7.10;;
2674;SDS011;1347;42.122;24.746;2022-10-16T08:53:59;9.80;;;7.40;;
2674;SDS011;1347;42.122;24.746;2022-10-16T08:56:29;7.97;;;7.37;;
2674;SDS011;1347;42.122;24.746;2022-10-16T08:58:59;9.70;;;8.90;;
2674;SDS011;1347;42.122;24.746;2022-10-16T09:01:32;8.23;;;7.43;;
2674;SDS011;1347;42.122;24.746;2022-10-16T09:07:09;8.43;;;7.47;;
2674;SDS011;1347;42.122;24.746;2022-10-16T09:09:51;10.33;;;8.27;;
2674;SDS011;1347;42.122;24.746;2022-10-16T09:12:26;9.17;;;8.27;;
2674;SDS011;1347;42.122;24.746;2022-10-16T09:15:01;7.60;;;6.90;;
2674;SDS011;1347;42.122;24.746;2022-10-16T09:17:37;7.23;;;6.63;;
2674;SDS011;1347;42.122;24.746;2022-10-16T09:20:16;14.63;;;7.40;;
2674;SDS011;1347;42.122;24.746;2022-10-16T09:22:52;8.43;;;7.70;;
2674;SDS011;1347;42.122;24.746;2022-10-16T09:25:23;7.10;;;6.60;;
2674;SDS011;1347;42.122;24.746;2022-10-16T09:27:52;8.47;;;7.60;;
2674;SDS011;1347;42.122;24.746;2022-10-16T09:30:21;7.43;;;6.83;;
2674;SDS011;1347;42.122;24.746;2022-10-16T09:32:52;7.70;;;7.00;;
2674;SDS011;1347;42.122;24.746;2022-10-16T09:35:20;8.10;;;7.40;;
2674;SDS011;1347;42.122;24.746;2022-10-16T09:37:50;7.27;;;6.57;;
2674;SDS011;1347;42.122;24.746;2022-10-16T09:40:24;7.50;;;6.90;;
2674;SDS011;1347;42.122;24.746;2022-10-16T09:42:56;17.90;;;7.27;;
2674;SDS011;1347;42.122;24.746;2022-10-16T09:45:29;6.73;;;5.67;;
2674;SDS011;1347;42.122;24.746;2022-10-16T09:47:56;9.43;;;6.70;;
2674;SDS011;1347;42.122;24.746;2022-10-16T09:50:24;7.93;;;7.13;;
2674;SDS011;1347;42.122;24.746;2022-10-16T09:53:02;8.43;;;7.63;;
2674;SDS011;1347;42.122;24.746;2022-10-16T09:55:32;8.00;;;7.20;;
2674;SDS011;1347;42.122;24.746;2022-10-16T09:57:59;7.23;;;6.50;;
2674;SDS011;1347;42.122;24.746;2022-10-16T10:00:27;8.57;;;7.53;;
2674;SDS011;1347;42.122;24.746;2022-10-16T10:02:58;16.43;;;7.80;;
2674;SDS011;1347;42.122;24.746;2022-10-16T10:05:26;9.93;;;7.43;;
2674;SDS011;1347;42.122;24.746;2022-10-16T10:07:55;7.90;;;7.10;;
2674;SDS011;1347;42.122;24.746;2022-10-16T10:10:24;7.07;;;6.47;;
2674;SDS011;1347;42.122;24.746;2022-10-16T10:12:53;10.27;;;6.33;;
2674;SDS011;1347;42.122;24.746;2022-10-16T10:15:20;8.37;;;6.47;;
2674;SDS011;1347;42.122;24.746;2022-10-16T10:17:51;7.97;;;6.30;;
2674;SDS011;1347;42.122;24.746;2022-10-16T10:20:23;7.93;;;5.90;;
2674;SDS011;1347;42.122;24.746;2022-10-16T10:22:53;7.27;;;6.57;;
2674;SDS011;1347;42.122;24.746;2022-10-16T10:25:26;6.83;;;6.23;;
2674;SDS011;1347;42.122;24.746;2022-10-16T10:28:06;7.30;;;6.07;;
2674;SDS011;1347;42.122;24.746;2022-10-16T10:30:46;6.30;;;5.70;;
2674;SDS011;1347;42.122;24.746;2022-10-16T10:33:23;9.17;;;7.03;;
2674;SDS011;1347;42.122;24.746;2022-10-16T10:35:56;7.10;;;6.50;;
2674;SDS011;1347;42.122;24.746;2022-10-16T10:38:35;7.10;;;6.40;;
2674;SDS011;1347;42.122;24.746;2022-10-16T10:44:24;8.20;;;7.50;;
2674;SDS011;1347;42.122;24.746;2022-10-16T10:47:05;8.20;;;7.40;;
2674;SDS011;1347;42.122;24.746;2022-10-16T10:49:51;13.00;;;6.80;;
2674;SDS011;1347;42.122;24.746;2022-10-16T10:52:33;7.40;;;6.80;;
2674;SDS011;1347;42.122;24.746;2022-10-16T10:55:14;7.17;;;6.20;;
2674;SDS011;1347;42.122;24.746;2022-10-16T10:57:51;7.47;;;6.77;;
2674;SDS011;1347;42.122;24.746;2022-10-16T11:00:27;7.13;;;6.53;;
2674;SDS011;1347;42.122;24.746;2022-10-16T11:02:58;9.40;;;6.97;;
2674;SDS011;1347;42.122;24.746;2022-10-16T11:05:41;6.80;;;6.10;;
2674;SDS011;1347;42.122;24.746;2022-10-16T11:08:11;8.53;;;7.27;;
2674;SDS011;1347;42.122;24.746;2022-10-16T11:10:45;8.07;;;6.17;;
2674;SDS011;1347;42.122;24.746;2022-10-16T11:13:20;6.50;;;5.90;;
2674;SDS011;1347;42.122;24.746;2022-10-16T11:15:54;6.87;;;6.27;;
2674;SDS011;1347;42.122;24.746;2022-10-16T11:18:26;7.73;;;6.77;;
2674;SDS011;1347;42.122;24.746;2022-10-16T11:21:02;6.60;;;6.00;;
2674;SDS011;1347;42.122;24.746;2022-10-16T11:23:35;6.67;;;6.03;;
2674;SDS011;1347;42.122;24.746;2022-10-16T11:26:10;6.63;;;5.90;;
2674;SDS011;1347;42.122;24.746;2022-10-16T11:28:47;11.13;;;6.63;;
2674;SDS011;1347;42.122;24.746;2022-10-16T11:31:18;8.07;;;7.27;;
2674;SDS011;1347;42.122;24.746;2022-10-16T11:33:52;7.90;;;6.70;;
2674;SDS011;1347;42.122;24.746;2022-10-16T11:36:27;8.00;;;7.20;;
2674;SDS011;1347;42.122;24.746;2022-10-16T11:39:04;6.37;;;5.77;;
2674;SDS011;1347;42.122;24.746;2022-10-16T11:41:43;7.07;;;6.37;;
2674;SDS011;1347;42.122;24.746;2022-10-16T11:44:16;7.90;;;6.87;;
2674;SDS011;1347;42.122;24.746;2022-10-16T11:46:57;8.13;;;6.23;;
2674;SDS011;1347;42.122;24.746;2022-10-16T11:49:33;7.50;;;6.60;;
2674;SDS011;1347;42.122;24.746;2022-10-16T11:52:06;7.13;;;6.53;;
2674;SDS011;1347;42.122;24.746;2022-10-16T11:54:39;6.77;;;6.17;;
2674;SDS011;1347;42.122;24.746;2022-10-16T11:57:13;7.00;;;6.30;;
2674;SDS011;1347;42.122;24.746;2022-10-16T11:59:45;8.73;;;6.67;;
2674;SDS011;1347;42.122;24.746;2022-10-16T12:02:26;9.40;;;7.33;;
2674;SDS011;1347;42.122;24.746;2022-10-16T12:05:06;8.00;;;6.23;;
2674;SDS011;1347;42.122;24.746;2022-10-16T12:07:48;8.03;;;7.17;;
2674;SDS011;1347;42.122;24.746;2022-10-16T12:10:22;7.17;;;6.20;;
2674;SDS011;1347;42.122;24.746;2022-10-16T12:12:51;7.87;;;6.07;;
2674;SDS011;1347;42.122;24.746;2022-10-16T12:15:32;7.10;;;6.50;;
2674;SDS011;1347;42.122;24.746;2022-10-16T12:18:00;7.17;;;6.23;;
2674;SDS011;1347;42.122;24.746;2022-10-16T12:20:31;7.17;;;6.00;;
2674;SDS011;1347;42.122;24.746;2022-10-16T12:23:03;7.30;;;6.60;;
2674;SDS011;1347;42.122;24.746;2022-10-16T12:25:32;7.90;;;6.00;;
2674;SDS011;1347;42.122;24.746;2022-10-16T12:28:02;6.37;;;5.67;;
2674;SDS011;1347;42.122;24.746;2022-10-16T12:30:32;7.47;;;6.70;;
2674;SDS011;1347;42.122;24.746;2022-10-16T12:33:01;6.80;;;6.23;;
2674;SDS011;1347;42.122;24.746;2022-10-16T12:35:30;11.50;;;6.30;;
2674;SDS011;1347;42.122;24.746;2022-10-16T12:38:08;6.93;;;6.23;;
2674;SDS011;1347;42.122;24.746;2022-10-16T12:40:43;11.57;;;10.47;;
2674;SDS011;1347;42.122;24.746;2022-10-16T12:46:04;6.33;;;5.83;;
2674;SDS011;1347;42.122;24.746;2022-10-16T12:48:49;8.97;;;5.60;;
2674;SDS011;1347;42.122;24.746;2022-10-16T12:51:23;8.50;;;7.30;;
2674;SDS011;1347;42.122;24.746;2022-10-16T12:54:01;12.67;;;10.27;;
2674;SDS011;1347;42.122;24.746;2022-10-16T12:56:33;9.30;;;7.90;;
2674;SDS011;1347;42.122;24.746;2022-10-16T12:59:10;8.67;;;7.87;;
2674;SDS011;1347;42.122;24.746;2022-10-16T13:01:51;7.87;;;7.10;;
2674;SDS011;1347;42.122;24.746;2022-10-16T13:04:43;7.67;;;6.97;;
2674;SDS011;1347;42.122;24.746;2022-10-16T13:07:26;8.90;;;7.13;;
2674;SDS011;1347;42.122;24.746;2022-10-16T13:10:14;9.10;;;8.17;;
2674;SDS011;1347;42.122;24.746;2022-10-16T13:15:57;7.93;;;7.13;;
2674;SDS011;1347;42.122;24.746;2022-10-16T13:18:38;12.40;;;7.03;;
2674;SDS011;1347;42.122;24.746;2022-10-16T13:21:23;9.80;;;8.80;;
2674;SDS011;1347;42.122;24.746;2022-10-16T13:24:00;8.10;;;7.30;;
2674;SDS011;1347;42.122;24.746;2022-10-16T13:26:40;8.83;;;8.03;;
2674;SDS011;1347;42.122;24.746;2022-10-16T13:29:12;10.40;;;7.20;;
2674;SDS011;1347;42.122;24.746;2022-10-16T13:31:40;7.60;;;6.90;;
2674;SDS011;1347;42.122;24.746;2022-10-16T13:34:11;8.50;;;6.53;;
2674;SDS011;1347;42.122;24.746;2022-10-16T13:36:45;10.10;;;6.87;;
2674;SDS011;1347;42.122;24.746;2022-10-16T13:39:16;13.03;;;7.80;;
2674;SDS011;1347;42.122;24.746;2022-10-16T13:42:00;9.70;;;7.13;;
2674;SDS011;1347;42.122;24.746;2022-10-16T13:44:30;7.90;;;6.70;;
2674;SDS011;1347;42.122;24.746;2022-10-16T13:47:02;10.70;;;7.70;;
2674;SDS011;1347;42.122;24.746;2022-10-16T13:49:29;8.50;;;6.60;;
2674;SDS011;1347;42.122;24.746;2022-10-16T13:51:56;7.97;;;6.70;;
2674;SDS011;1347;42.122;24.746;2022-10-16T13:54:25;8.70;;;7.03;;
2674;SDS011;1347;42.122;24.746;2022-10-16T13:56:54;8.00;;;6.70;;
2674;SDS011;1347;42.122;24.746;2022-10-16T13:59:24;6.70;;;6.03;;
2674;SDS011;1347;42.122;24.746;2022-10-16T14:01:52;11.53;;;7.10;;
2674;SDS011;1347;42.122;24.746;2022-10-16T14:04:22;8.47;;;7.63;;
2674;SDS011;1347;42.122;24.746;2022-10-16T14:06:50;7.27;;;6.40;;
2674;SDS011;1347;42.122;24.746;2022-10-16T14:09:20;8.07;;;7.20;;
2674;SDS011;1347;42.122;24.746;2022-10-16T14:11:50;7.30;;;6.60;;
2674;SDS011;1347;42.122;24.746;2022-10-16T14:14:20;8.80;;;6.73;;
2674;SDS011;1347;42.122;24.746;2022-10-16T14:16:49;7.17;;;6.37;;
2674;SDS011;1347;42.122;24.746;2022-10-16T14:19:18;11.13;;;8.67;;
2674;SDS011;1347;42.122;24.746;2022-10-16T14:21:48;7.33;;;6.63;;
2674;SDS011;1347;42.122;24.746;2022-10-16T14:24:24;10.87;;;7.80;;
2674;SDS011;1347;42.122;24.746;2022-10-16T14:26:53;9.50;;;8.07;;
2674;SDS011;1347;42.122;24.746;2022-10-16T14:29:21;9.77;;;6.83;;
2674;SDS011;1347;42.122;24.746;2022-10-16T14:32:00;11.43;;;7.33;;
2674;SDS011;1347;42.122;24.746;2022-10-16T14:34:30;9.87;;;7.57;;
2674;SDS011;1347;42.122;24.746;2022-10-16T14:36:59;9.10;;;8.20;;
2674;SDS011;1347;42.122;24.746;2022-10-16T14:39:32;9.60;;;7.73;;
2674;SDS011;1347;42.122;24.746;2022-10-16T14:42:00;13.30;;;8.83;;
2674;SDS011;1347;42.122;24.746;2022-10-16T14:44:28;21.03;;;16.67;;
2674;SDS011;1347;42.122;24.746;2022-10-16T14:47:05;11.43;;;10.23;;
2674;SDS011;1347;42.122;24.746;2022-10-16T14:49:35;9.40;;;8.50;;
2674;SDS011;1347;42.122;24.746;2022-10-16T14:52:04;8.87;;;7.90;;
2674;SDS011;1347;42.122;24.746;2022-10-16T14:54:35;8.60;;;7.80;;
2674;SDS011;1347;42.122;24.746;2022-10-16T14:57:02;8.30;;;7.07;;
2674;SDS011;1347;42.122;24.746;2022-10-16T14:59:30;7.80;;;7.00;;
2674;SDS011;1347;42.122;24.746;2022-10-16T15:02:01;6.83;;;6.20;;
2674;SDS011;1347;42.122;24.746;2022-10-16T15:04:47;8.70;;;6.00;;
2674;SDS011;1347;42.122;24.746;2022-10-16T15:07:14;6.10;;;5.50;;
2674;SDS011;1347;42.122;24.746;2022-10-16T15:09:42;6.17;;;5.63;;
2674;SDS011;1347;42.122;24.746;2022-10-16T15:12:09;6.70;;;6.10;;
2674;SDS011;1347;42.122;24.746;2022-10-16T15:14:36;8.00;;;5.80;;
2674;SDS011;1347;42.122;24.746;2022-10-16T15:17:05;8.03;;;6.57;;
2674;SDS011;1347;42.122;24.746;2022-10-16T15:19:32;9.70;;;6.63;;